Aegean Tiffany — SVAE9 — position and weather

sailwx.info

Track history (hours):
 
Tides and Currents Weather Stations Pressure Air Temp Water Temp Dewpoint Dewpoint Depression Visibility Wind Speed Wind Dir Waves Ship Positions

Aegean Tiffany

Last reported at 2015-Feb-28 21:26 UTC. Time now 2015-Mar-03 07:29 UTC.
Position N 37°56' E 023°15'.

Length 80 m.

Type: Tanker. MMSI: 240870000.

Date/timePositionNaut miles runAvg speedWind from/ knotsBaromVisibWave heightAir tempDewpointWater temp
2015-Feb-28 21:26N 37°56' E 023°15'7 7.8
2015-Feb-28 20:33N 37°57' E 023°24'6 6.1
2015-Feb-28 19:33N 38°01' E 023°30'  
2015-Feb-26 11:28N 38°02' E 023°32'0 0.0
2015-Feb-26 10:33N 38°02' E 023°32'1 0.8
2015-Feb-26 09:33N 38°02' E 023°31'1 0.0
2015-Feb-25 11:07N 38°02' E 023°32'0 0.0
2015-Feb-25 10:32N 38°02' E 023°32'0 0.0
2015-Feb-25 09:33N 38°02' E 023°32'0 0.0
2015-Feb-25 08:33N 38°02' E 023°32'0 0.0
2015-Feb-25 07:33N 38°02' E 023°32'0 0.0
2015-Feb-25 06:34N 38°02' E 023°32'0 0.0
2015-Feb-25 05:34N 38°02' E 023°32'0 0.4
2015-Feb-25 04:33N 38°02' E 023°32'0 0.0
2015-Feb-25 03:28N 38°02' E 023°32'0 0.0
2015-Feb-25 02:33N 38°02' E 023°32'0 0.0
2015-Feb-25 01:33N 38°02' E 023°32'5 5.0
2015-Feb-25 00:33N 37°60' E 023°26'6 6.5
2015-Feb-24 23:33N 37°56' E 023°19'9 8.4
2015-Feb-24 22:29N 37°55' E 023°08'25 7.2
2015-Feb-24 19:04N 38°06' E 022°41'5 8.5
2015-Feb-24 18:28N 38°09' E 022°35'  
2015-Feb-19 22:27N 37°55' E 023°14'7 7.7
2015-Feb-19 21:33N 37°57' E 023°22'7 6.3
2015-Feb-19 20:27N 38°01' E 023°29'  
Track history (hours):
 
Tides and Currents Weather Stations Pressure Air Temp Water Temp Dewpoint Dewpoint Depression Visibility Wind Speed Wind Dir Waves Ship Positions

Aegean Tiffany

Last reported at 2015-Feb-28 21:26 UTC. Time now 2015-Mar-03 07:29 UTC.
Position N 37°56' E 023°15'.

Length 80 m.

Type: Tanker. MMSI: 240870000.

Date/timePositionNaut miles runAvg speedWind from/ knotsBaromVisibWave heightAir tempDewpointWater temp
2015-Feb-28 21:26N 37°56' E 023°15'7 7.8
2015-Feb-28 20:33N 37°57' E 023°24'6 6.1
2015-Feb-28 19:33N 38°01' E 023°30'  
2015-Feb-26 11:28N 38°02' E 023°32'0 0.0
2015-Feb-26 10:33N 38°02' E 023°32'1 0.8
2015-Feb-26 09:33N 38°02' E 023°31'1 0.0
2015-Feb-25 11:07N 38°02' E 023°32'0 0.0
2015-Feb-25 10:32N 38°02' E 023°32'0 0.0
2015-Feb-25 09:33N 38°02' E 023°32'0 0.0
2015-Feb-25 08:33N 38°02' E 023°32'0 0.0
2015-Feb-25 07:33N 38°02' E 023°32'0 0.0
2015-Feb-25 06:34N 38°02' E 023°32'0 0.0
2015-Feb-25 05:34N 38°02' E 023°32'0 0.4
2015-Feb-25 04:33N 38°02' E 023°32'0 0.0
2015-Feb-25 03:28N 38°02' E 023°32'0 0.0
2015-Feb-25 02:33N 38°02' E 023°32'0 0.0
2015-Feb-25 01:33N 38°02' E 023°32'5 5.0
2015-Feb-25 00:33N 37°60' E 023°26'6 6.5
2015-Feb-24 23:33N 37°56' E 023°19'9 8.4
2015-Feb-24 22:29N 37°55' E 023°08'25 7.2
2015-Feb-24 19:04N 38°06' E 022°41'5 8.5
2015-Feb-24 18:28N 38°09' E 022°35'  
2015-Feb-19 22:27N 37°55' E 023°14'7 7.7
2015-Feb-19 21:33N 37°57' E 023°22'7 6.3
2015-Feb-19 20:27N 38°01' E 023°29'  

Dump ship's entire track history